createdAt,value
2023-02-06T13:08:51.970Z,20.52
2023-02-06T13:12:09.471Z,26.58
2023-02-06T13:15:24.315Z,36.40
2023-02-06T13:18:52.839Z,20.83
2023-02-06T13:22:39.727Z,24.98
2023-02-06T13:25:50.787Z,24.92
2023-02-06T13:29:03.653Z,32.50
2023-02-06T13:32:42.438Z,26.48
2023-02-06T13:35:59.913Z,15.10
2023-02-06T13:39:16.521Z,16.88
2023-02-06T13:42:40.855Z,22.70
2023-02-06T13:45:51.634Z,22.38
2023-02-06T13:49:11.232Z,24.30
2023-02-06T13:52:26.652Z,25.40
2023-02-06T13:55:39.525Z,18.83
2023-02-06T13:58:51.732Z,19.48
2023-02-06T14:01:56.449Z,24.35
2023-02-06T14:05:04.282Z,16.00
2023-02-06T14:08:14.928Z,24.60
2023-02-06T14:11:58.469Z,13.40
2023-02-06T14:15:27.401Z,20.63
2023-02-06T14:18:42.890Z,12.85
2023-02-06T14:22:01.567Z,17.70
2023-02-06T14:25:23.779Z,17.45
2023-02-06T14:28:38.825Z,13.15
2023-02-06T14:32:00.991Z,21.15
2023-02-06T14:35:28.988Z,14.90
2023-02-06T14:39:03.768Z,22.25
2023-02-06T14:42:12.581Z,17.17
2023-02-06T14:45:28.482Z,20.05
2023-02-06T14:48:39.890Z,23.40
2023-02-06T14:51:51.786Z,13.85
2023-02-06T14:54:55.930Z,17.73
2023-02-06T14:58:03.457Z,18.40
2023-02-06T15:01:20.556Z,19.13
2023-02-06T15:04:31.317Z,19.33
2023-02-06T15:07:37.716Z,15.70
2023-02-06T15:10:45.848Z,19.17
2023-02-06T15:13:52.238Z,22.77
2023-02-06T15:16:59.500Z,16.08
2023-02-06T15:20:26.306Z,20.55
2023-02-06T15:23:43.759Z,25.75
2023-02-06T15:26:53.022Z,13.07
2023-02-06T15:29:59.367Z,14.70
2023-02-06T15:33:03.316Z,16.17
2023-02-06T15:36:23.313Z,15.93
2023-02-06T15:39:27.819Z,21.38
2023-02-06T15:42:34.200Z,19.58
2023-02-06T15:45:39.907Z,15.60
2023-02-06T15:48:52.142Z,15.35
2023-02-06T15:51:57.925Z,16.75
2023-02-06T15:55:04.212Z,16.10
2023-02-06T15:58:08.146Z,20.52
2023-02-06T16:01:17.687Z,21.15
2023-02-06T16:04:25.406Z,24.90
2023-02-06T16:07:35.277Z,12.95
2023-02-06T16:10:40.965Z,16.27
2023-02-06T16:13:47.459Z,13.32
2023-02-06T16:16:59.509Z,21.08
2023-02-06T16:20:07.753Z,14.60
2023-02-06T16:23:26.024Z,18.75
2023-02-06T16:26:33.339Z,29.23
2023-02-06T16:29:38.119Z,22.67
2023-02-06T16:32:43.993Z,22.70
2023-02-06T16:39:03.589Z,20.50
2023-02-06T16:42:08.701Z,24.92
2023-02-06T16:45:22.853Z,18.55
2023-02-06T16:48:26.665Z,12.93
2023-02-06T16:51:33.671Z,18.00
2023-02-06T16:54:39.623Z,22.77
2023-02-06T16:57:46.821Z,23.10
2023-02-06T17:00:51.560Z,22.02
2023-02-06T17:03:57.756Z,26.52
2023-02-06T17:07:01.648Z,21.40
2023-02-06T17:10:10.200Z,22.60
2023-02-06T17:13:18.280Z,17.25
2023-02-06T17:16:26.326Z,19.48
2023-02-06T17:19:30.141Z,19.67
2023-02-06T17:22:36.013Z,27.02
2023-02-06T17:25:43.536Z,20.98
2023-02-06T17:28:50.161Z,25.75
2023-02-06T17:31:54.087Z,34.47
2023-02-06T17:35:01.885Z,23.65
2023-02-06T17:38:06.095Z,27.58
2023-02-06T17:41:13.952Z,19.00
2023-02-06T17:44:19.368Z,17.70
2023-02-06T17:47:25.465Z,24.85
2023-02-06T17:50:30.178Z,31.13
2023-02-06T17:53:36.102Z,28.27
2023-02-06T17:59:47.917Z,20.73
2023-02-06T18:02:52.480Z,44.65
2023-02-06T18:05:59.707Z,21.35
2023-02-06T18:09:03.754Z,35.40
2023-02-06T18:12:11.641Z,35.90
2023-02-06T18:15:15.737Z,21.25
2023-02-06T18:18:21.874Z,29.38
2023-02-06T18:21:28.376Z,29.90
2023-02-06T18:24:34.287Z,48.30
2023-02-06T18:30:46.706Z,75.10
2023-02-06T18:33:50.541Z,49.58
2023-02-06T18:36:56.917Z,42.70
2023-02-06T18:40:00.716Z,32.30
2023-02-06T18:43:09.141Z,32.45
2023-02-06T18:46:12.960Z,33.75
2023-02-06T18:49:18.928Z,36.88
2023-02-06T18:55:28.757Z,26.88
2023-02-06T18:58:34.481Z,30.23
2023-02-06T19:01:40.367Z,32.58
2023-02-06T19:07:51.630Z,25.48
2023-02-06T19:10:58.712Z,22.42
2023-02-06T19:14:07.943Z,23.48
2023-02-06T19:17:11.793Z,30.73
2023-02-06T19:20:17.797Z,23.75
2023-02-06T19:23:21.570Z,25.35
2023-02-06T19:26:29.293Z,25.63
2023-02-06T19:29:36.536Z,22.38
2023-02-06T19:32:43.078Z,55.20
2023-02-06T19:35:46.918Z,64.30
2023-02-06T19:38:55.932Z,63.80
2023-02-06T19:41:59.733Z,52.13
2023-02-06T19:45:08.505Z,39.50
2023-02-06T19:48:13.353Z,41.70
2023-02-06T19:51:21.422Z,47.83
2023-02-06T19:54:25.261Z,46.50
2023-02-06T19:57:31.145Z,45.72
2023-02-06T20:03:44.602Z,41.25
2023-02-06T20:06:50.510Z,45.90
2023-02-06T20:09:56.388Z,48.22
2023-02-06T20:16:14.926Z,31.08
2023-02-06T20:19:21.739Z,33.90
2023-02-06T20:22:27.739Z,40.65
2023-02-06T20:25:31.879Z,44.13
2023-02-06T20:28:37.837Z,37.85
2023-02-06T20:34:49.302Z,29.42
2023-02-06T20:40:58.742Z,32.42
2023-02-06T20:47:10.450Z,35.45
2023-02-06T20:50:15.022Z,33.67
2023-02-06T20:53:20.896Z,26.35
2023-02-06T20:59:30.722Z,41.53
2023-02-06T21:05:42.185Z,69.63
2023-02-06T21:11:52.764Z,83.93
2023-02-06T21:18:04.200Z,59.42
2023-02-06T21:21:10.476Z,55.60
2023-02-06T21:24:16.977Z,40.42
2023-02-06T21:27:20.846Z,41.17
2023-02-06T21:30:26.812Z,46.95
2023-02-06T21:33:32.846Z,37.72
2023-02-06T21:36:40.289Z,38.50
2023-02-06T21:39:44.502Z,38.70
2023-02-06T21:42:50.384Z,39.45
2023-02-06T21:49:08.609Z,35.65
2023-02-06T21:52:12.381Z,28.23
2023-02-06T21:55:18.421Z,21.67
2023-02-06T21:58:22.256Z,23.83
2023-02-06T22:01:30.237Z,32.38
2023-02-06T22:04:35.975Z,29.67
2023-02-06T22:07:41.794Z,26.38
2023-02-06T22:13:51.763Z,34.45
2023-02-06T22:16:55.714Z,31.60
2023-02-06T22:20:03.517Z,25.83
2023-02-06T22:23:07.296Z,23.77
2023-02-06T22:26:15.184Z,39.30
2023-02-06T22:29:19.493Z,28.27
2023-02-06T22:32:25.373Z,31.70
2023-02-06T22:38:37.229Z,29.17
2023-02-06T22:41:43.028Z,29.38
2023-02-06T22:44:49.167Z,29.27
2023-02-06T22:47:53.049Z,30.60
2023-02-06T22:51:06.302Z,29.27
2023-02-06T22:54:10.824Z,29.45
2023-02-06T22:57:16.670Z,30.00
2023-02-06T23:03:26.194Z,40.08
2023-02-06T23:09:40.194Z,34.72
2023-02-06T23:12:44.027Z,28.65
2023-02-06T23:15:49.907Z,32.60
2023-02-06T23:18:55.819Z,30.48
2023-02-06T23:22:01.597Z,32.30
2023-02-06T23:25:09.560Z,41.47
2023-02-06T23:28:13.399Z,44.30
2023-02-06T23:31:19.315Z,41.90
2023-02-06T23:34:24.314Z,38.08
2023-02-06T23:37:32.085Z,31.55
2023-02-06T23:40:36.722Z,36.05
2023-02-06T23:43:43.135Z,29.40
2023-02-06T23:46:47.142Z,27.00
2023-02-06T23:49:52.912Z,35.20
2023-02-06T23:56:10.369Z,43.97
2023-02-06T23:59:14.274Z,34.97
